Time,TemperatureF,DewpointF,PressureIn,WindDirection,WindDirectionDegrees,WindSpeedMPH,WindSpeedGustMPH,Humidity,HourlyPrecipIn,Conditions,Clouds,dailyrainin,SoftwareType,DateUTC
2013-01-15 00:02:00,7.1,2.2,30.31,SSE,164,3.0,4.0,80,0.00,,SKC,0.00,VWS V14.01,2013-01-15 06:02:00,
2013-01-15 00:07:00,6.9,2.3,30.30,SSE,159,3.0,4.0,81,0.00,,SKC,0.00,VWS V14.01,2013-01-15 06:07:00,
2013-01-15 00:12:00,6.5,1.9,30.30,SSE,160,2.0,4.0,81,0.00,,SKC,0.00,VWS V14.01,2013-01-15 06:12:00,
2013-01-15 00:17:00,6.4,1.8,30.30,SSE,160,3.0,4.0,81,0.00,,SKC,0.00,VWS V14.01,2013-01-15 06:17:00,
2013-01-15 00:22:00,6.3,1.7,30.30,South,178,10.0,10.0,81,0.00,,SKC,0.00,VWS V14.01,2013-01-15 06:22:00,
2013-01-15 00:27:00,6.8,2.5,30.29,SSE,168,6.0,9.0,82,0.00,,SKC,0.00,VWS V14.01,2013-01-15 06:27:00,
2013-01-15 00:32:00,6.8,2.2,30.29,SSE,164,4.0,7.0,81,0.00,,SKC,0.00,VWS V14.01,2013-01-15 06:32:00,
2013-01-15 00:37:00,6.7,2.4,30.29,SSE,164,3.0,6.0,82,0.00,,SKC,0.00,VWS V14.01,2013-01-15 06:37:00,
2013-01-15 00:42:00,6.7,2.4,30.29,South,179,4.0,6.0,82,0.00,,SKC,0.00,VWS V14.01,2013-01-15 06:42:00,
2013-01-15 00:47:00,6.8,2.5,30.30,South,184,2.0,6.0,82,0.00,,SKC,0.00,VWS V14.01,2013-01-15 06:47:00,
2013-01-15 00:52:00,7.0,2.7,30.30,South,183,3.0,5.0,82,0.00,,SKC,0.00,VWS V14.01,2013-01-15 06:52:00,
2013-01-15 00:57:00,7.1,2.8,30.29,SSE,163,3.0,5.0,82,0.00,,SKC,0.00,VWS V14.01,2013-01-15 06:57:00,
2013-01-15 01:02:00,6.7,2.1,30.29,South,175,3.0,6.0,81,0.00,,SKC,0.00,VWS V14.01,2013-01-15 07:02:00,
2013-01-15 01:07:00,6.4,2.1,30.29,South,173,2.0,4.0,82,0.00,,SKC,0.00,VWS V14.01,2013-01-15 07:07:00,
2013-01-15 01:12:00,6.3,2.0,30.29,South,175,3.0,5.0,82,0.00,,SKC,0.00,VWS V14.01,2013-01-15 07:12:00,
2013-01-15 01:17:00,6.4,2.1,30.29,South,178,2.0,5.0,82,0.00,,SKC,0.00,VWS V14.01,2013-01-15 07:17:00,
2013-01-15 01:22:00,6.4,2.1,30.28,South,184,4.0,5.0,82,0.00,,SKC,0.00,VWS V14.01,2013-01-15 07:22:00,
2013-01-15 01:27:00,6.3,2.0,30.29,South,172,4.0,5.0,82,0.00,,SKC,0.00,VWS V14.01,2013-01-15 07:27:00,
2013-01-15 01:32:00,6.4,2.1,30.28,South,185,5.0,6.0,82,0.00,,SKC,0.00,VWS V14.01,2013-01-15 07:32:00,
2013-01-15 01:37:00,6.3,2.0,30.29,SSW,204,4.0,5.0,82,0.00,,SKC,0.00,VWS V14.01,2013-01-15 07:37:00,
2013-01-15 01:42:00,6.3,2.2,30.29,South,187,4.0,4.0,83,0.00,,SKC,0.00,VWS V14.01,2013-01-15 07:42:00,
2013-01-15 01:47:00,6.3,2.2,30.29,SSW,194,3.0,7.0,83,0.00,,SKC,0.00,VWS V14.01,2013-01-15 07:47:00,
2013-01-15 01:52:00,6.3,2.2,30.29,SSE,166,0.0,4.0,83,0.00,,SKC,0.00,VWS V14.01,2013-01-15 07:52:00,
2013-01-15 01:57:00,6.3,2.2,30.29,SSW,210,0.0,3.0,83,0.00,,SKC,0.00,VWS V14.01,2013-01-15 07:57:00,
2013-01-15 02:02:00,6.3,2.2,30.29,SSW,199,2.0,2.0,83,0.00,,SKC,0.00,VWS V14.01,2013-01-15 08:02:00,
2013-01-15 02:07:00,6.3,2.2,30.29,SSW,199,0.0,1.0,83,0.00,,SKC,0.00,VWS V14.01,2013-01-15 08:07:00,
2013-01-15 02:12:00,6.2,2.2,30.29,SSW,199,0.0,1.0,83,0.00,,SKC,0.00,VWS V14.01,2013-01-15 08:12:00,
2013-01-15 02:17:00,6.4,2.6,30.29,SSE,161,0.0,2.0,84,0.00,,SKC,0.00,VWS V14.01,2013-01-15 08:17:00,
2013-01-15 02:22:00,6.5,2.7,30.29,SSE,166,0.0,2.0,84,0.00,,SKC,0.00,VWS V14.01,2013-01-15 08:22:00,
2013-01-15 02:27:00,6.6,2.8,30.29,South,171,0.0,2.0,84,0.00,,SKC,0.00,VWS V14.01,2013-01-15 08:27:00,
2013-01-15 02:32:00,6.6,2.8,30.29,South,171,1.0,2.0,84,0.00,,SKC,0.00,VWS V14.01,2013-01-15 08:32:00,
2013-01-15 02:37:00,6.6,2.8,30.29,South,171,0.0,1.0,84,0.00,,SKC,0.00,VWS V14.01,2013-01-15 08:37:00,
2013-01-15 02:42:00,6.7,2.9,30.28,SSW,196,0.0,2.0,84,0.00,,SKC,0.00,VWS V14.01,2013-01-15 08:42:00,
2013-01-15 02:47:00,6.9,3.1,30.28,SW,216,0.0,2.0,84,0.00,,SKC,0.00,VWS V14.01,2013-01-15 08:47:00,
2013-01-15 02:52:00,7.0,3.2,30.28,SSW,208,0.0,2.0,84,0.00,,SKC,0.00,VWS V14.01,2013-01-15 08:52:00,
2013-01-15 02:57:00,7.1,3.3,30.28,SSW,208,0.0,2.0,84,0.00,,SKC,0.00,VWS V14.01,2013-01-15 08:57:00,
2013-01-15 03:02:00,6.9,3.1,30.29,SSE,157,2.0,4.0,84,0.00,,SKC,0.00,VWS V14.01,2013-01-15 09:02:00,
2013-01-15 03:07:00,6.3,2.2,30.29,South,171,2.0,4.0,83,0.00,,SKC,0.00,VWS V14.01,2013-01-15 09:07:00,
2013-01-15 03:12:00,6.1,2.3,30.29,South,171,1.0,3.0,84,0.00,,SKC,0.00,VWS V14.01,2013-01-15 09:12:00,
2013-01-15 03:17:00,6.2,2.4,30.29,South,171,2.0,2.0,84,0.00,,SKC,0.00,VWS V14.01,2013-01-15 09:17:00,
2013-01-15 03:22:00,6.4,2.6,30.29,South,171,0.0,3.0,84,0.00,,SKC,0.00,VWS V14.01,2013-01-15 09:22:00,
2013-01-15 03:27:00,6.5,2.7,30.29,South,171,0.0,2.0,84,0.00,,SKC,0.00,VWS V14.01,2013-01-15 09:27:00,
2013-01-15 03:32:00,6.7,3.2,30.29,South,175,0.0,4.0,85,0.00,,SKC,0.00,VWS V14.01,2013-01-15 09:32:00,
2013-01-15 03:37:00,6.9,3.1,30.29,South,175,2.0,4.0,84,0.00,,SKC,0.00,VWS V14.01,2013-01-15 09:37:00,
2013-01-15 03:42:00,6.8,3.0,30.29,South,185,0.0,4.0,84,0.00,,SKC,0.00,VWS V14.01,2013-01-15 09:42:00,
2013-01-15 03:47:00,6.8,3.0,30.28,South,176,1.0,3.0,84,0.00,,SKC,0.00,VWS V14.01,2013-01-15 09:47:00,
2013-01-15 03:52:00,6.9,3.1,30.29,SSW,202,0.0,4.0,84,0.00,,SKC,0.00,VWS V14.01,2013-01-15 09:52:00,
2013-01-15 03:57:00,7.0,3.2,30.28,SSW,202,0.0,2.0,84,0.00,,SKC,0.00,VWS V14.01,2013-01-15 09:57:00,
2013-01-15 04:02:00,7.0,3.2,30.28,SSW,202,1.0,3.0,84,0.00,,SKC,0.00,VWS V14.01,2013-01-15 10:02:00,
2013-01-15 04:07:00,6.9,3.1,30.29,SW,233,3.0,3.0,84,0.00,,SKC,0.00,VWS V14.01,2013-01-15 10:07:00,
2013-01-15 04:12:00,6.8,3.0,30.29,SW,226,0.0,5.0,84,0.00,,SKC,0.00,VWS V14.01,2013-01-15 10:12:00,
2013-01-15 04:17:00,6.7,2.9,30.28,South,177,1.0,3.0,84,0.00,,SKC,0.00,VWS V14.01,2013-01-15 10:17:00,
2013-01-15 04:22:00,6.3,2.5,30.28,South,177,2.0,2.0,84,0.00,,SKC,0.00,VWS V14.01,2013-01-15 10:22:00,
2013-01-15 04:27:00,5.9,2.1,30.28,South,178,0.0,3.0,84,0.00,,SKC,0.00,VWS V14.01,2013-01-15 10:27:00,
2013-01-15 04:32:00,5.7,1.9,30.28,South,178,2.0,3.0,84,0.00,,SKC,0.00,VWS V14.01,2013-01-15 10:32:00,
2013-01-15 04:37:00,5.6,1.8,30.28,South,178,0.0,2.0,84,0.00,,SKC,0.00,VWS V14.01,2013-01-15 10:37:00,
2013-01-15 04:42:00,5.6,2.1,30.27,South,178,1.0,2.0,85,0.00,,SKC,0.00,VWS V14.01,2013-01-15 10:42:00,
2013-01-15 04:47:00,5.6,2.1,30.27,South,178,1.0,3.0,85,0.00,,SKC,0.00,VWS V14.01,2013-01-15 10:47:00,
2013-01-15 04:52:00,5.6,2.1,30.27,South,180,3.0,4.0,85,0.00,,SKC,0.00,VWS V14.01,2013-01-15 10:52:00,
2013-01-15 04:57:00,5.7,2.2,30.26,SSE,164,3.0,4.0,85,0.00,,SKC,0.00,VWS V14.01,2013-01-15 10:57:00,
2013-01-15 05:02:00,5.6,2.1,30.27,South,184,0.0,2.0,85,0.00,,SKC,0.00,VWS V14.01,2013-01-15 11:02:00,
2013-01-15 05:07:00,5.5,2.0,30.27,South,174,3.0,3.0,85,0.00,,SKC,0.00,VWS V14.01,2013-01-15 11:07:00,
2013-01-15 05:12:00,5.5,2.0,30.27,SSW,206,1.0,3.0,85,0.00,,SKC,0.00,VWS V14.01,2013-01-15 11:12:00,
2013-01-15 05:17:00,5.4,1.9,30.27,SSE,168,0.0,4.0,85,0.00,,SKC,0.00,VWS V14.01,2013-01-15 11:17:00,
2013-01-15 05:22:00,5.4,1.9,30.27,SSE,168,0.0,2.0,85,0.00,,SKC,0.00,VWS V14.01,2013-01-15 11:22:00,
2013-01-15 05:27:00,5.1,1.3,30.26,SSE,168,2.0,2.0,84,0.00,,SKC,0.00,VWS V14.01,2013-01-15 11:27:00,
2013-01-15 05:32:00,4.6,0.8,30.26,SSE,168,3.0,3.0,84,0.00,,SKC,0.00,VWS V14.01,2013-01-15 11:32:00,
2013-01-15 05:37:00,3.9,0.2,30.26,SSE,168,0.0,3.0,84,0.00,,SKC,0.00,VWS V14.01,2013-01-15 11:37:00,
2013-01-15 05:42:00,3.2,-0.5,30.26,SSE,168,3.0,4.0,84,0.00,,SKC,0.00,VWS V14.01,2013-01-15 11:42:00,
2013-01-15 05:47:00,3.3,-0.4,30.26,SSE,168,2.0,4.0,84,0.00,,SKC,0.00,VWS V14.01,2013-01-15 11:47:00,
2013-01-15 05:52:00,3.1,-0.6,30.26,SSE,168,0.0,3.0,84,0.00,,SKC,0.00,VWS V14.01,2013-01-15 11:52:00,
2013-01-15 05:57:00,3.1,-0.4,30.26,South,170,1.0,3.0,85,0.00,,SKC,0.00,VWS V14.01,2013-01-15 11:57:00,
2013-01-15 06:02:00,3.5,0.0,30.26,South,170,2.0,3.0,85,0.00,,SKC,0.00,VWS V14.01,2013-01-15 12:02:00,
2013-01-15 06:07:00,3.6,0.1,30.26,South,169,2.0,3.0,85,0.00,,SKC,0.00,VWS V14.01,2013-01-15 12:07:00,
2013-01-15 06:12:00,3.8,0.3,30.26,South,169,0.0,2.0,85,0.00,,SKC,0.00,VWS V14.01,2013-01-15 12:12:00,
2013-01-15 06:17:00,3.6,-0.1,30.26,South,169,0.0,1.0,84,0.00,,SKC,0.00,VWS V14.01,2013-01-15 12:17:00,
2013-01-15 06:22:00,3.4,-0.1,30.26,South,170,2.0,4.0,85,0.00,,SKC,0.00,VWS V14.01,2013-01-15 12:22:00,
2013-01-15 06:27:00,3.4,-0.1,30.26,SSE,157,2.0,4.0,85,0.00,,SKC,0.00,VWS V14.01,2013-01-15 12:27:00,
2013-01-15 06:32:00,3.8,0.3,30.26,SSE,159,0.0,4.0,85,0.00,,SKC,0.00,VWS V14.01,2013-01-15 12:32:00,
2013-01-15 06:37:00,3.8,0.3,30.26,SSE,152,2.0,6.0,85,0.00,,SKC,0.00,VWS V14.01,2013-01-15 12:37:00,
2013-01-15 06:42:00,4.0,0.5,30.26,SE,138,0.0,3.0,85,0.00,,SKC,0.00,VWS V14.01,2013-01-15 12:42:00,
2013-01-15 06:47:00,4.2,0.7,30.26,SSE,153,4.0,6.0,85,0.00,,SKC,0.00,VWS V14.01,2013-01-15 12:47:00,
2013-01-15 06:52:00,4.4,0.9,30.26,SSE,159,0.0,4.0,85,0.00,,SKC,0.00,VWS V14.01,2013-01-15 12:52:00,
2013-01-15 06:57:00,4.5,1.0,30.26,SSE,159,4.0,5.0,85,0.00,,SKC,0.00,VWS V14.01,2013-01-15 12:57:00,
2013-01-15 07:02:00,4.7,1.2,30.26,SSE,164,2.0,5.0,85,0.00,,SKC,0.00,VWS V14.01,2013-01-15 13:02:00,
2013-01-15 07:07:00,5.1,1.8,30.25,SSE,166,4.0,6.0,86,0.00,,SKC,0.00,VWS V14.01,2013-01-15 13:07:00,
2013-01-15 07:12:00,5.4,1.9,30.26,South,170,1.0,5.0,85,0.00,,SKC,0.00,VWS V14.01,2013-01-15 13:12:00,
2013-01-15 07:17:00,5.5,2.0,30.26,South,175,2.0,4.0,85,0.00,,SKC,0.00,VWS V14.01,2013-01-15 13:17:00,
2013-01-15 07:22:00,5.7,2.2,30.26,SSE,166,3.0,5.0,85,0.00,,SKC,0.00,VWS V14.01,2013-01-15 13:22:00,
2013-01-15 07:27:00,5.8,2.3,30.26,SSE,165,3.0,3.0,85,0.00,,SKC,0.00,VWS V14.01,2013-01-15 13:27:00,
2013-01-15 07:32:00,5.9,2.4,30.26,South,176,4.0,5.0,85,0.00,,SKC,0.00,VWS V14.01,2013-01-15 13:32:00,
2013-01-15 07:37:00,6.0,2.5,30.26,South,173,3.0,6.0,85,0.00,,SKC,0.00,VWS V14.01,2013-01-15 13:37:00,
2013-01-15 07:42:00,6.1,2.6,30.26,SSE,167,3.0,4.0,85,0.00,,SKC,0.00,VWS V14.01,2013-01-15 13:42:00,
2013-01-15 07:47:00,6.2,2.7,30.26,SSE,150,0.0,5.0,85,0.00,,SKC,0.00,VWS V14.01,2013-01-15 13:47:00,
2013-01-15 07:52:00,6.3,2.8,30.26,SSE,167,2.0,3.0,85,0.00,,SKC,0.00,VWS V14.01,2013-01-15 13:52:00,
2013-01-15 07:57:00,6.4,2.9,30.25,SE,146,3.0,6.0,85,0.00,,SKC,0.00,VWS V14.01,2013-01-15 13:57:00,
2013-01-15 08:02:00,6.5,3.0,30.26,SSE,148,2.0,5.0,85,0.00,,SKC,0.00,VWS V14.01,2013-01-15 14:02:00,
2013-01-15 08:07:00,6.7,3.2,30.25,SSE,157,4.0,5.0,85,0.00,,SKC,0.00,VWS V14.01,2013-01-15 14:07:00,
2013-01-15 08:12:00,6.9,3.3,30.25,South,173,5.0,8.0,85,0.00,,SKC,0.00,VWS V14.01,2013-01-15 14:12:00,
2013-01-15 08:17:00,7.3,3.8,30.26,South,170,2.0,7.0,85,0.00,,SKC,0.00,VWS V14.01,2013-01-15 14:17:00,
2013-01-15 08:22:00,7.4,3.8,30.26,SSE,159,0.0,4.0,85,0.00,,SKC,0.00,VWS V14.01,2013-01-15 14:22:00,
2013-01-15 08:27:00,7.5,3.9,30.26,SW,223,0.0,2.0,85,0.00,,SKC,0.00,VWS V14.01,2013-01-15 14:27:00,
2013-01-15 08:32:00,7.6,4.0,30.26,SW,222,0.0,0.0,85,0.00,,SKC,0.00,VWS V14.01,2013-01-15 14:32:00,
2013-01-15 08:36:00,7.6,4.0,30.26,South,176,3.0,4.0,85,0.00,,SKC,0.00,VWS V14.01,2013-01-15 14:36:00,
2013-01-15 08:41:00,7.8,4.2,30.25,SSE,164,2.0,5.0,85,0.00,,SKC,0.00,VWS V14.01,2013-01-15 14:41:00,
2013-01-15 08:47:00,7.9,4.3,30.25,SSE,167,1.0,3.0,85,0.00,,SKC,0.00,VWS V14.01,2013-01-15 14:47:00,
2013-01-15 08:51:00,8.2,4.6,30.26,South,185,2.0,4.0,85,0.00,,SKC,0.00,VWS V14.01,2013-01-15 14:51:00,
2013-01-15 08:57:00,8.5,4.9,30.25,SSE,167,5.0,9.0,85,0.00,,SKC,0.00,VWS V14.01,2013-01-15 14:57:00,
2013-01-15 09:02:00,8.7,5.1,30.25,SSE,168,4.0,6.0,85,0.00,,SKC,0.00,VWS V14.01,2013-01-15 15:02:00,
2013-01-15 09:07:00,8.9,5.3,30.25,South,173,5.0,6.0,85,0.00,,SKC,0.00,VWS V14.01,2013-01-15 15:07:00,
2013-01-15 09:11:00,9.2,5.6,30.24,SSE,163,6.0,7.0,85,0.00,,SKC,0.00,VWS V14.01,2013-01-15 15:11:00,
2013-01-15 09:17:00,9.4,5.8,30.24,South,171,6.0,7.0,85,0.00,,SKC,0.00,VWS V14.01,2013-01-15 15:17:00,
2013-01-15 09:21:00,9.6,6.0,30.24,South,171,7.0,9.0,85,0.00,,SKC,0.00,VWS V14.01,2013-01-15 15:21:00,
2013-01-15 09:26:00,9.8,6.2,30.24,South,170,7.0,9.0,85,0.00,,SKC,0.00,VWS V14.01,2013-01-15 15:26:00,
2013-01-15 09:31:00,9.9,6.0,30.24,SSE,168,9.0,10.0,84,0.00,,SKC,0.00,VWS V14.01,2013-01-15 15:31:00,
2013-01-15 09:36:00,9.9,6.0,30.24,SW,230,5.0,9.0,84,0.00,,SKC,0.00,VWS V14.01,2013-01-15 15:36:00,
2013-01-15 09:42:00,9.9,6.0,30.24,South,186,7.0,10.0,84,0.00,,SKC,0.00,VWS V14.01,2013-01-15 15:42:00,
2013-01-15 09:47:00,10.1,6.2,30.24,SSE,167,8.0,9.0,84,0.00,,SKC,0.00,VWS V14.01,2013-01-15 15:47:00,
2013-01-15 09:52:00,10.3,6.4,30.24,SSE,161,5.0,10.0,84,0.00,,SKC,0.00,VWS V14.01,2013-01-15 15:52:00,
2013-01-15 09:57:00,10.5,6.6,30.23,SSE,161,9.0,9.0,84,0.00,,SKC,0.00,VWS V14.01,2013-01-15 15:57:00,
2013-01-15 10:02:00,10.7,6.8,30.23,SSE,164,6.0,9.0,84,0.00,,SKC,0.00,VWS V14.01,2013-01-15 16:02:00,
2013-01-15 10:07:00,11.4,7.8,30.22,SSE,159,9.0,10.0,85,0.00,,SKC,0.00,VWS V14.01,2013-01-15 16:07:00,
2013-01-15 10:11:00,12.1,8.2,30.22,SSE,160,7.0,10.0,84,0.00,,SKC,0.00,VWS V14.01,2013-01-15 16:11:00,
2013-01-15 10:16:00,12.6,8.4,30.22,SSE,157,8.0,8.0,83,0.00,,SKC,0.00,VWS V14.01,2013-01-15 16:16:00,
2013-01-15 10:21:00,13.0,8.8,30.22,South,176,9.0,11.0,83,0.00,,SKC,0.00,VWS V14.01,2013-01-15 16:21:00,
2013-01-15 10:26:00,13.2,8.8,30.21,South,179,14.0,14.0,82,0.00,,SKC,0.00,VWS V14.01,2013-01-15 16:26:00,
2013-01-15 10:31:00,13.5,9.0,30.21,South,176,11.0,14.0,82,0.00,,SKC,0.00,VWS V14.01,2013-01-15 16:31:00,
2013-01-15 10:36:00,13.4,8.7,30.21,SSE,159,10.0,14.0,81,0.00,,SKC,0.00,VWS V14.01,2013-01-15 16:36:00,
2013-01-15 10:41:00,13.5,8.8,30.20,South,173,13.0,14.0,81,0.00,,SKC,0.00,VWS V14.01,2013-01-15 16:41:00,
2013-01-15 10:46:00,13.8,9.1,30.20,South,186,10.0,15.0,81,0.00,,SKC,0.00,VWS V14.01,2013-01-15 16:46:00,
2013-01-15 10:51:00,14.3,9.3,30.20,South,175,9.0,14.0,80,0.00,,SKC,0.00,VWS V14.01,2013-01-15 16:51:00,
2013-01-15 10:56:00,14.7,9.7,30.19,SSE,167,10.0,12.0,80,0.00,,SKC,0.00,VWS V14.01,2013-01-15 16:56:00,
2013-01-15 11:01:00,15.2,9.9,30.19,South,186,10.0,13.0,79,0.00,,SKC,0.00,VWS V14.01,2013-01-15 17:01:00,
2013-01-15 11:06:00,15.5,9.9,30.19,SSW,192,11.0,15.0,78,0.00,,SKC,0.00,VWS V14.01,2013-01-15 17:06:00,
2013-01-15 11:11:00,15.9,10.0,30.19,South,180,6.0,13.0,77,0.00,,SKC,0.00,VWS V14.01,2013-01-15 17:11:00,
2013-01-15 11:16:00,16.2,10.3,30.19,South,190,12.0,13.0,77,0.00,,SKC,0.00,VWS V14.01,2013-01-15 17:16:00,
2013-01-15 11:21:00,16.4,10.2,30.18,South,172,8.0,15.0,76,0.00,,SKC,0.00,VWS V14.01,2013-01-15 17:21:00,
2013-01-15 11:26:00,16.8,10.6,30.18,SSW,202,12.0,13.0,76,0.00,,SKC,0.00,VWS V14.01,2013-01-15 17:26:00,
2013-01-15 11:31:00,17.2,10.6,30.17,SSW,196,10.0,16.0,75,0.00,,SKC,0.00,VWS V14.01,2013-01-15 17:31:00,
2013-01-15 11:36:00,17.6,10.7,30.17,South,188,11.0,14.0,74,0.00,,SKC,0.00,VWS V14.01,2013-01-15 17:36:00,
2013-01-15 11:41:00,18.1,10.9,30.16,South,175,6.0,14.0,73,0.00,,SKC,0.00,VWS V14.01,2013-01-15 17:41:00,
2013-01-15 11:46:00,18.5,11.0,30.16,SSW,199,6.0,13.0,72,0.00,,SKC,0.00,VWS V14.01,2013-01-15 17:46:00,
2013-01-15 11:51:00,18.9,11.1,30.15,SSE,165,6.0,11.0,71,0.00,,SKC,0.00,VWS V14.01,2013-01-15 17:51:00,
2013-01-15 11:56:00,19.2,11.0,30.15,South,183,9.0,15.0,70,0.00,,SKC,0.00,VWS V14.01,2013-01-15 17:56:00,
2013-01-15 12:01:00,19.4,10.9,30.15,South,179,9.0,13.0,69,0.00,,SKC,0.00,VWS V14.01,2013-01-15 18:01:00,
2013-01-15 12:06:00,19.4,10.6,30.14,South,173,13.0,17.0,68,0.00,,SKC,0.00,VWS V14.01,2013-01-15 18:06:00,
2013-01-15 12:11:00,19.5,10.7,30.14,SSE,161,8.0,19.0,68,0.00,,SKC,0.00,VWS V14.01,2013-01-15 18:11:00,
2013-01-15 12:16:00,19.4,10.6,30.14,South,190,14.0,17.0,68,0.00,,SKC,0.00,VWS V14.01,2013-01-15 18:16:00,
2013-01-15 12:21:00,19.6,10.1,30.14,South,184,17.0,21.0,66,0.00,,SKC,0.00,VWS V14.01,2013-01-15 18:21:00,
2013-01-15 12:26:00,20.0,10.5,30.13,South,188,13.0,13.0,66,0.00,,SKC,0.00,VWS V14.01,2013-01-15 18:26:00,
2013-01-15 12:31:00,20.2,10.3,30.13,SW,215,12.0,16.0,65,0.00,,SKC,0.00,VWS V14.01,2013-01-15 18:31:00,
2013-01-15 12:36:00,20.1,10.2,30.13,South,190,10.0,14.0,65,0.00,,SKC,0.00,VWS V14.01,2013-01-15 18:36:00,
2013-01-15 12:41:00,20.2,10.3,30.13,South,178,9.0,13.0,65,0.00,,SKC,0.00,VWS V14.01,2013-01-15 18:41:00,
2013-01-15 12:46:00,20.5,11.0,30.12,SSW,196,8.0,15.0,66,0.00,,SKC,0.00,VWS V14.01,2013-01-15 18:46:00,
2013-01-15 12:51:00,20.7,10.8,30.12,SSE,165,13.0,15.0,65,0.00,,SKC,0.00,VWS V14.01,2013-01-15 18:51:00,
2013-01-15 12:56:00,20.9,11.0,30.12,South,178,10.0,13.0,65,0.00,,SKC,0.00,VWS V14.01,2013-01-15 18:56:00,
2013-01-15 13:01:00,21.1,10.8,30.12,SSW,192,6.0,13.0,64,0.00,,SKC,0.00,VWS V14.01,2013-01-15 19:01:00,
2013-01-15 13:06:00,21.3,11.0,30.12,South,189,12.0,14.0,64,0.00,,SKC,0.00,VWS V14.01,2013-01-15 19:06:00,
2013-01-15 13:11:00,21.3,11.0,30.12,South,187,11.0,15.0,64,0.00,,SKC,0.00,VWS V14.01,2013-01-15 19:11:00,
2013-01-15 13:16:00,21.5,11.2,30.11,South,190,13.0,14.0,64,0.00,,SKC,0.00,VWS V14.01,2013-01-15 19:16:00,
2013-01-15 13:21:00,21.6,10.6,30.11,SSW,193,7.0,16.0,62,0.00,,SKC,0.00,VWS V14.01,2013-01-15 19:21:00,
2013-01-15 13:26:00,21.7,10.7,30.11,South,188,7.0,15.0,62,0.00,,SKC,0.00,VWS V14.01,2013-01-15 19:26:00,
2013-01-15 13:31:00,21.9,10.9,30.11,SSW,199,6.0,13.0,62,0.00,,SKC,0.00,VWS V14.01,2013-01-15 19:31:00,
2013-01-15 13:36:00,22.0,10.6,30.11,South,186,12.0,12.0,61,0.00,,SKC,0.00,VWS V14.01,2013-01-15 19:36:00,
2013-01-15 13:41:00,22.0,10.6,30.11,SSW,201,10.0,14.0,61,0.00,,SKC,0.00,VWS V14.01,2013-01-15 19:41:00,
2013-01-15 13:46:00,22.1,11.1,30.11,SSW,209,8.0,12.0,62,0.00,,SKC,0.00,VWS V14.01,2013-01-15 19:46:00,
2013-01-15 13:51:00,22.3,11.3,30.11,South,188,5.0,12.0,62,0.00,,SKC,0.00,VWS V14.01,2013-01-15 19:51:00,
2013-01-15 13:56:00,22.4,11.4,30.10,South,191,10.0,15.0,62,0.00,,SKC,0.00,VWS V14.01,2013-01-15 19:56:00,
2013-01-15 14:01:00,22.5,11.5,30.10,South,182,9.0,11.0,62,0.00,,SKC,0.00,VWS V14.01,2013-01-15 20:01:00,
2013-01-15 14:06:00,22.6,11.9,30.09,South,184,7.0,15.0,63,0.00,,SKC,0.00,VWS V14.01,2013-01-15 20:06:00,
2013-01-15 14:11:00,22.2,11.2,30.09,SW,219,6.0,18.0,62,0.00,,SKC,0.00,VWS V14.01,2013-01-15 20:11:00,
2013-01-15 14:16:00,22.3,11.3,30.09,SSE,168,10.0,13.0,62,0.00,,SKC,0.00,VWS V14.01,2013-01-15 20:16:00,
2013-01-15 14:21:00,22.0,11.4,30.09,South,182,9.0,17.0,63,0.00,,SKC,0.00,VWS V14.01,2013-01-15 20:21:00,
2013-01-15 14:26:00,21.9,11.2,30.08,South,180,8.0,16.0,63,0.00,,SKC,0.00,VWS V14.01,2013-01-15 20:26:00,
2013-01-15 14:31:00,21.7,11.1,30.08,South,188,6.0,18.0,63,0.00,,SKC,0.00,VWS V14.01,2013-01-15 20:31:00,
2013-01-15 14:36:00,21.7,11.1,30.08,South,176,9.0,18.0,63,0.00,,SKC,0.00,VWS V14.01,2013-01-15 20:36:00,
2013-01-15 14:41:00,21.8,11.2,30.08,South,184,12.0,19.0,63,0.00,,SKC,0.00,VWS V14.01,2013-01-15 20:41:00,
2013-01-15 14:46:00,22.0,11.4,30.08,SSW,200,11.0,14.0,63,0.00,,SKC,0.00,VWS V14.01,2013-01-15 20:46:00,
2013-01-15 14:51:00,22.1,11.4,30.08,SSE,159,7.0,15.0,63,0.00,,SKC,0.00,VWS V14.01,2013-01-15 20:51:00,
2013-01-15 14:56:00,22.2,11.2,30.09,South,178,13.0,19.0,62,0.00,,SKC,0.00,VWS V14.01,2013-01-15 20:56:00,
2013-01-15 15:01:00,22.4,11.4,30.09,SSE,158,7.0,15.0,62,0.00,,SKC,0.00,VWS V14.01,2013-01-15 21:01:00,
2013-01-15 15:06:00,22.4,11.4,30.09,South,187,13.0,17.0,62,0.00,,SKC,0.00,VWS V14.01,2013-01-15 21:06:00,
2013-01-15 15:11:00,22.4,11.4,30.08,South,190,13.0,18.0,62,0.00,,SKC,0.00,VWS V14.01,2013-01-15 21:11:00,
2013-01-15 15:16:00,22.4,11.4,30.08,South,183,7.0,19.0,62,0.00,,SKC,0.00,VWS V14.01,2013-01-15 21:16:00,
2013-01-15 15:21:00,22.6,11.6,30.08,SSE,165,9.0,16.0,62,0.00,,SKC,0.00,VWS V14.01,2013-01-15 21:21:00,
2013-01-15 15:26:00,22.8,11.8,30.07,SSW,200,10.0,18.0,62,0.00,,SKC,0.00,VWS V14.01,2013-01-15 21:26:00,
2013-01-15 15:31:00,22.8,12.1,30.08,South,171,7.0,15.0,63,0.00,,SKC,0.00,VWS V14.01,2013-01-15 21:31:00,
2013-01-15 15:36:00,23.0,12.3,30.08,South,178,9.0,11.0,63,0.00,,SKC,0.00,VWS V14.01,2013-01-15 21:36:00,
2013-01-15 15:41:00,22.9,12.2,30.08,South,182,14.0,17.0,63,0.00,,SKC,0.00,VWS V14.01,2013-01-15 21:41:00,
2013-01-15 15:46:00,22.9,12.2,30.07,South,178,14.0,18.0,63,0.00,,SKC,0.00,VWS V14.01,2013-01-15 21:46:00,
2013-01-15 15:51:00,22.7,12.4,30.08,South,187,9.0,15.0,64,0.00,,SKC,0.00,VWS V14.01,2013-01-15 21:51:00,
2013-01-15 15:56:00,22.5,12.2,30.08,South,190,9.0,14.0,64,0.00,,SKC,0.00,VWS V14.01,2013-01-15 21:56:00,
2013-01-15 16:01:00,22.5,12.2,30.07,South,176,8.0,13.0,64,0.00,,SKC,0.00,VWS V14.01,2013-01-15 22:01:00,
2013-01-15 16:06:00,22.4,12.4,30.08,South,172,6.0,14.0,65,0.00,,SKC,0.00,VWS V14.01,2013-01-15 22:06:00,
2013-01-15 16:11:00,22.4,12.4,30.08,SSW,199,4.0,18.0,65,0.00,,SKC,0.00,VWS V14.01,2013-01-15 22:11:00,
2013-01-15 16:16:00,22.4,12.4,30.08,South,173,6.0,15.0,65,0.00,,SKC,0.00,VWS V14.01,2013-01-15 22:16:00,
2013-01-15 16:21:00,22.4,12.8,30.07,South,176,12.0,16.0,66,0.00,,SKC,0.00,VWS V14.01,2013-01-15 22:21:00,
2013-01-15 16:26:00,22.4,13.1,30.07,South,191,14.0,14.0,67,0.00,,SKC,0.00,VWS V14.01,2013-01-15 22:26:00,
2013-01-15 16:31:00,22.5,13.2,30.07,South,182,6.0,15.0,67,0.00,,SKC,0.00,VWS V14.01,2013-01-15 22:31:00,
2013-01-15 16:36:00,22.5,13.6,30.07,South,186,9.0,16.0,68,0.00,,SKC,0.00,VWS V14.01,2013-01-15 22:36:00,
2013-01-15 16:41:00,22.5,13.9,30.07,South,173,10.0,15.0,69,0.00,,SKC,0.00,VWS V14.01,2013-01-15 22:41:00,
2013-01-15 16:46:00,22.4,13.8,30.07,South,175,5.0,13.0,69,0.00,,SKC,0.00,VWS V14.01,2013-01-15 22:46:00,
2013-01-15 16:51:00,22.2,13.6,30.07,SSW,209,6.0,10.0,69,0.00,,SKC,0.00,VWS V14.01,2013-01-15 22:51:00,
2013-01-15 16:56:00,22.0,13.7,30.06,SSW,195,5.0,10.0,70,0.00,,SKC,0.00,VWS V14.01,2013-01-15 22:56:00,
2013-01-15 17:01:00,21.8,13.9,30.06,South,183,6.0,10.0,71,0.00,,SKC,0.00,VWS V14.01,2013-01-15 23:01:00,
2013-01-15 17:06:00,21.6,14.0,30.06,South,186,10.0,11.0,72,0.00,,SKC,0.00,VWS V14.01,2013-01-15 23:06:00,
2013-01-15 17:11:00,21.5,14.2,30.06,South,183,6.0,13.0,73,0.00,,SKC,0.00,VWS V14.01,2013-01-15 23:11:00,
2013-01-15 17:16:00,21.3,14.0,30.05,South,186,10.0,13.0,73,0.00,,SKC,0.00,VWS V14.01,2013-01-15 23:16:00,
2013-01-15 17:21:00,21.1,14.1,30.05,South,180,6.0,13.0,74,0.00,,SKC,0.00,VWS V14.01,2013-01-15 23:21:00,
2013-01-15 17:26:00,20.9,13.9,30.05,South,178,6.0,11.0,74,0.00,,SKC,0.00,VWS V14.01,2013-01-15 23:26:00,
2013-01-15 17:31:00,20.6,13.9,30.04,South,188,6.0,11.0,75,0.00,,SKC,0.00,VWS V14.01,2013-01-15 23:31:00,
2013-01-15 17:36:00,20.4,13.8,30.04,South,187,6.0,10.0,75,0.00,,SKC,0.00,VWS V14.01,2013-01-15 23:36:00,
2013-01-15 17:41:00,20.1,13.8,30.04,SSE,160,5.0,10.0,76,0.00,,SKC,0.00,VWS V14.01,2013-01-15 23:41:00,
2013-01-15 17:46:00,20.0,13.7,30.04,South,187,7.0,10.0,76,0.00,,SKC,0.00,VWS V14.01,2013-01-15 23:46:00,
2013-01-15 17:51:00,19.9,13.9,30.04,South,188,11.0,11.0,77,0.00,,SKC,0.00,VWS V14.01,2013-01-15 23:51:00,
2013-01-15 17:56:00,20.1,14.1,30.04,South,173,7.0,10.0,77,0.00,,SKC,0.00,VWS V14.01,2013-01-15 23:56:00,
2013-01-15 18:01:00,20.2,14.4,30.04,South,178,7.0,14.0,78,0.00,,SKC,0.00,VWS V14.01,2013-01-16 00:01:00,
2013-01-15 18:06:00,20.3,14.3,30.03,South,175,5.0,12.0,77,0.00,,SKC,0.00,VWS V14.01,2013-01-16 00:06:00,
2013-01-15 18:11:00,20.2,14.4,30.03,South,171,5.0,12.0,78,0.00,,SKC,0.00,VWS V14.01,2013-01-16 00:11:00,
2013-01-15 18:16:00,20.3,14.6,30.03,South,180,5.0,13.0,78,0.00,,SKC,0.00,VWS V14.01,2013-01-16 00:16:00,
2013-01-15 18:21:00,20.6,14.6,30.02,South,190,7.0,13.0,77,0.00,,SKC,0.00,VWS V14.01,2013-01-16 00:21:00,
2013-01-15 18:26:00,20.8,14.4,30.02,South,173,11.0,15.0,76,0.00,,SKC,0.00,VWS V14.01,2013-01-16 00:26:00,
2013-01-15 18:31:00,21.0,14.3,30.02,South,190,10.0,12.0,75,0.00,,SKC,0.00,VWS V14.01,2013-01-16 00:31:00,
2013-01-15 18:36:00,21.0,14.0,30.01,SSE,167,7.0,15.0,74,0.00,,SKC,0.00,VWS V14.01,2013-01-16 00:36:00,
2013-01-15 18:41:00,21.0,14.0,30.01,South,189,9.0,14.0,74,0.00,,SKC,0.00,VWS V14.01,2013-01-16 00:41:00,
2013-01-15 18:46:00,20.9,13.9,30.01,SSW,199,7.0,12.0,74,0.00,,SKC,0.00,VWS V14.01,2013-01-16 00:46:00,
2013-01-15 18:51:00,21.0,13.7,30.00,SSW,196,6.0,14.0,73,0.00,,SKC,0.00,VWS V14.01,2013-01-16 00:51:00,
2013-01-15 18:56:00,20.9,13.6,30.00,South,180,9.0,13.0,73,0.00,,SKC,0.00,VWS V14.01,2013-01-16 00:56:00,
2013-01-15 19:01:00,20.8,13.5,30.00,SW,221,7.0,13.0,73,0.00,,SKC,0.00,VWS V14.01,2013-01-16 01:01:00,
2013-01-15 19:06:00,20.6,13.3,30.00,South,186,8.0,10.0,73,0.00,,SKC,0.00,VWS V14.01,2013-01-16 01:06:00,
2013-01-15 19:11:00,20.4,13.1,29.99,South,187,7.0,12.0,73,0.00,,SKC,0.00,VWS V14.01,2013-01-16 01:11:00,
2013-01-15 19:16:00,20.3,13.0,29.99,South,178,7.0,13.0,73,0.00,,SKC,0.00,VWS V14.01,2013-01-16 01:16:00,
2013-01-15 19:21:00,20.3,13.0,29.99,South,190,9.0,13.0,73,0.00,,SKC,0.00,VWS V14.01,2013-01-16 01:21:00,
2013-01-15 19:26:00,20.3,13.0,29.98,SSW,194,7.0,12.0,73,0.00,,SKC,0.00,VWS V14.01,2013-01-16 01:26:00,
2013-01-15 19:31:00,20.1,12.9,29.97,South,190,11.0,13.0,73,0.00,,SKC,0.00,VWS V14.01,2013-01-16 01:31:00,
2013-01-15 19:36:00,20.3,13.0,29.97,South,177,6.0,16.0,73,0.00,,SKC,0.00,VWS V14.01,2013-01-16 01:36:00,
2013-01-15 19:41:00,20.4,13.1,29.97,SSW,210,7.0,12.0,73,0.00,,SKC,0.00,VWS V14.01,2013-01-16 01:41:00,
2013-01-15 19:46:00,20.5,13.2,29.96,South,186,12.0,14.0,73,0.00,,SKC,0.00,VWS V14.01,2013-01-16 01:46:00,
2013-01-15 19:51:00,20.7,13.4,29.95,SSE,167,9.0,16.0,73,0.00,,SKC,0.00,VWS V14.01,2013-01-16 01:51:00,
2013-01-15 19:56:00,20.7,13.4,29.94,SSW,211,16.0,22.0,73,0.00,,SKC,0.00,VWS V14.01,2013-01-16 01:56:00,
2013-01-15 20:01:00,20.9,13.6,29.94,South,186,12.0,19.0,73,0.00,,SKC,0.00,VWS V14.01,2013-01-16 02:01:00,
2013-01-15 20:06:00,20.8,13.2,29.93,South,184,9.0,19.0,72,0.00,,SKC,0.00,VWS V14.01,2013-01-16 02:06:00,
2013-01-15 20:11:00,20.6,13.3,29.93,SSW,205,15.0,15.0,73,0.00,,SKC,0.00,VWS V14.01,2013-01-16 02:11:00,
2013-01-15 20:16:00,20.6,13.3,29.92,South,188,12.0,14.0,73,0.00,,SKC,0.00,VWS V14.01,2013-01-16 02:16:00,
2013-01-15 20:21:00,20.6,13.3,29.92,SSW,194,13.0,16.0,73,0.00,,SKC,0.00,VWS V14.01,2013-01-16 02:21:00,
2013-01-15 20:26:00,20.9,13.9,29.92,South,187,11.0,16.0,74,0.00,,SKC,0.00,VWS V14.01,2013-01-16 02:26:00,
2013-01-15 20:31:00,20.8,13.8,29.92,SSE,167,12.0,15.0,74,0.00,,SKC,0.00,VWS V14.01,2013-01-16 02:31:00,
2013-01-15 20:36:00,20.9,13.9,29.92,SSW,199,7.0,15.0,74,0.00,,SKC,0.00,VWS V14.01,2013-01-16 02:36:00,
2013-01-15 20:41:00,21.0,13.7,29.92,South,179,11.0,16.0,73,0.00,,SKC,0.00,VWS V14.01,2013-01-16 02:41:00,
2013-01-15 20:46:00,21.0,13.7,29.92,SSW,198,9.0,12.0,73,0.00,,SKC,0.00,VWS V14.01,2013-01-16 02:46:00,
2013-01-15 20:51:00,21.2,13.6,29.92,SSW,201,11.0,14.0,72,0.00,,SKC,0.00,VWS V14.01,2013-01-16 02:51:00,
2013-01-15 20:56:00,21.3,13.4,29.92,SW,223,7.0,16.0,71,0.00,,SKC,0.00,VWS V14.01,2013-01-16 02:56:00,
2013-01-15 21:01:00,21.5,13.6,29.92,WSW,238,6.0,16.0,71,0.00,,SKC,0.00,VWS V14.01,2013-01-16 03:01:00,
2013-01-15 21:06:00,21.5,13.2,29.91,SSW,213,10.0,14.0,70,0.00,,SKC,0.00,VWS V14.01,2013-01-16 03:06:00,
2013-01-15 21:11:00,21.5,13.2,29.91,SSW,206,14.0,16.0,70,0.00,,SKC,0.00,VWS V14.01,2013-01-16 03:11:00,
2013-01-15 21:16:00,21.5,13.2,29.89,South,187,13.0,16.0,70,0.00,,SKC,0.00,VWS V14.01,2013-01-16 03:16:00,
2013-01-15 21:21:00,21.6,13.0,29.88,South,182,13.0,15.0,69,0.00,,SKC,0.00,VWS V14.01,2013-01-16 03:21:00,
2013-01-15 21:26:00,21.7,13.1,29.88,SW,226,11.0,18.0,69,0.00,,SKC,0.00,VWS V14.01,2013-01-16 03:26:00,
2013-01-15 21:31:00,21.7,13.1,29.88,South,184,10.0,16.0,69,0.00,,SKC,0.00,VWS V14.01,2013-01-16 03:31:00,
2013-01-15 21:36:00,21.7,12.8,29.88,South,191,6.0,14.0,68,0.00,,SKC,0.00,VWS V14.01,2013-01-16 03:36:00,
2013-01-15 21:41:00,21.5,12.6,29.88,South,184,9.0,16.0,68,0.00,,SKC,0.00,VWS V14.01,2013-01-16 03:41:00,
2013-01-15 21:46:00,21.5,12.6,29.87,South,181,7.0,14.0,68,0.00,,SKC,0.00,VWS V14.01,2013-01-16 03:46:00,
2013-01-15 21:51:00,21.4,12.5,29.87,SSW,199,14.0,17.0,68,0.00,,SKC,0.00,VWS V14.01,2013-01-16 03:51:00,
2013-01-15 21:56:00,21.3,12.4,29.87,SSW,192,4.0,12.0,68,0.00,,SKC,0.00,VWS V14.01,2013-01-16 03:56:00,
2013-01-15 22:01:00,21.3,12.4,29.86,SSW,208,4.0,12.0,68,0.00,,SKC,0.00,VWS V14.01,2013-01-16 04:01:00,
2013-01-15 22:06:00,21.2,12.3,29.85,SSW,198,9.0,13.0,68,0.00,,SKC,0.00,VWS V14.01,2013-01-16 04:06:00,
2013-01-15 22:11:00,21.2,12.3,29.85,South,191,7.0,15.0,68,0.00,,SKC,0.00,VWS V14.01,2013-01-16 04:11:00,
2013-01-15 22:16:00,21.2,12.3,29.84,SSW,207,13.0,14.0,68,0.00,,SKC,0.00,VWS V14.01,2013-01-16 04:16:00,
2013-01-15 22:21:00,21.2,12.3,29.84,South,186,8.0,16.0,68,0.00,,SKC,0.00,VWS V14.01,2013-01-16 04:21:00,
2013-01-15 22:26:00,21.2,12.0,29.84,SW,220,7.0,14.0,67,0.00,,SKC,0.00,VWS V14.01,2013-01-16 04:26:00,
2013-01-15 22:31:00,21.3,12.1,29.84,SW,219,11.0,15.0,67,0.00,,SKC,0.00,VWS V14.01,2013-01-16 04:31:00,
2013-01-15 22:36:00,21.4,12.2,29.84,South,180,12.0,15.0,67,0.00,,SKC,0.00,VWS V14.01,2013-01-16 04:36:00,
2013-01-15 22:41:00,21.6,12.4,29.83,South,183,12.0,16.0,67,0.00,,SKC,0.00,VWS V14.01,2013-01-16 04:41:00,
2013-01-15 22:46:00,21.6,12.4,29.83,SSW,192,14.0,16.0,67,0.00,,SKC,0.00,VWS V14.01,2013-01-16 04:46:00,
2013-01-15 22:51:00,21.6,12.7,29.83,South,182,10.0,16.0,68,0.00,,SKC,0.00,VWS V14.01,2013-01-16 04:51:00,
2013-01-15 22:56:00,21.7,12.8,29.83,SW,215,10.0,16.0,68,0.00,,SKC,0.00,VWS V14.01,2013-01-16 04:56:00,
2013-01-15 23:00:00,21.8,12.9,29.82,SSE,155,6.0,12.0,68,0.00,,SKC,0.00,VWS V14.01,2013-01-16 05:00:00,
2013-01-15 23:02:00,21.8,13.2,29.82,South,188,10.0,13.0,69,0.00,,SKC,0.00,VWS V14.01,2013-01-16 05:02:00,
2013-01-15 23:03:00,21.8,12.9,29.82,SSW,209,7.0,13.0,68,0.00,,SKC,0.00,VWS V14.01,2013-01-16 05:03:00,
2013-01-15 23:08:00,21.9,13.3,29.81,South,182,9.0,13.0,69,0.00,,SKC,0.00,VWS V14.01,2013-01-16 05:08:00,
2013-01-15 23:13:00,22.0,13.4,29.80,SSW,207,15.0,17.0,69,0.00,,SKC,0.00,VWS V14.01,2013-01-16 05:13:00,
2013-01-15 23:18:00,22.1,13.5,29.80,South,191,9.0,13.0,69,0.00,,SKC,0.00,VWS V14.01,2013-01-16 05:18:00,
2013-01-15 23:23:00,22.2,13.3,29.80,SSW,201,6.0,17.0,68,0.00,,SKC,0.00,VWS V14.01,2013-01-16 05:23:00,
2013-01-15 23:28:00,22.3,13.4,29.79,South,191,11.0,16.0,68,0.00,,SKC,0.00,VWS V14.01,2013-01-16 05:28:00,
2013-01-15 23:33:00,22.5,13.6,29.79,SSW,202,10.0,14.0,68,0.00,,SKC,0.00,VWS V14.01,2013-01-16 05:33:00,
2013-01-15 23:38:00,22.6,13.6,29.78,SSW,196,11.0,13.0,68,0.00,,SKC,0.00,VWS V14.01,2013-01-16 05:38:00,
2013-01-15 23:43:00,22.7,13.7,29.77,SSE,159,14.0,20.0,68,0.00,,SKC,0.00,VWS V14.01,2013-01-16 05:43:00,
2013-01-15 23:48:00,22.8,13.8,29.76,South,191,9.0,19.0,68,0.00,,SKC,0.00,VWS V14.01,2013-01-16 05:48:00,
2013-01-15 23:53:00,22.9,13.6,29.76,South,191,10.0,15.0,67,0.00,,SKC,0.00,VWS V14.01,2013-01-16 05:53:00,
2013-01-15 23:58:00,23.0,14.0,29.76,SW,221,16.0,17.0,68,0.00,,SKC,0.00,VWS V14.01,2013-01-16 05:58:00,